sensor_id;sensor_type;location;lat;lon;timestamp;P1;durP1;ratioP1;P2;durP2;ratioP2
7845;SDS011;3968;51.424;6.788;2022-09-06T00:00:26;13.23;;;4.93;;
7845;SDS011;3968;51.424;6.788;2022-09-06T00:02:51;9.88;;;4.75;;
7845;SDS011;3968;51.424;6.788;2022-09-06T00:05:17;8.32;;;4.70;;
7845;SDS011;3968;51.424;6.788;2022-09-06T00:07:43;12.25;;;5.03;;
7845;SDS011;3968;51.424;6.788;2022-09-06T00:10:08;15.90;;;6.05;;
7845;SDS011;3968;51.424;6.788;2022-09-06T00:12:35;11.98;;;4.97;;
7845;SDS011;3968;51.424;6.788;2022-09-06T00:15:01;8.65;;;5.25;;
7845;SDS011;3968;51.424;6.788;2022-09-06T00:17:27;15.35;;;5.13;;
7845;SDS011;3968;51.424;6.788;2022-09-06T00:19:52;18.48;;;5.45;;
7845;SDS011;3968;51.424;6.788;2022-09-06T00:22:18;16.30;;;4.90;;
7845;SDS011;3968;51.424;6.788;2022-09-06T00:24:44;10.23;;;4.50;;
7845;SDS011;3968;51.424;6.788;2022-09-06T00:27:09;10.18;;;4.70;;
7845;SDS011;3968;51.424;6.788;2022-09-06T00:29:35;8.15;;;3.92;;
7845;SDS011;3968;51.424;6.788;2022-09-06T00:32:01;9.20;;;4.45;;
7845;SDS011;3968;51.424;6.788;2022-09-06T00:34:27;6.50;;;4.25;;
7845;SDS011;3968;51.424;6.788;2022-09-06T00:36:53;9.15;;;3.90;;
7845;SDS011;3968;51.424;6.788;2022-09-06T00:39:19;6.47;;;3.75;;
7845;SDS011;3968;51.424;6.788;2022-09-06T00:41:44;5.82;;;3.33;;
7845;SDS011;3968;51.424;6.788;2022-09-06T00:44:10;6.10;;;3.53;;
7845;SDS011;3968;51.424;6.788;2022-09-06T00:46:36;9.57;;;3.90;;
7845;SDS011;3968;51.424;6.788;2022-09-06T00:49:10;9.20;;;3.88;;
7845;SDS011;3968;51.424;6.788;2022-09-06T00:51:48;8.18;;;3.33;;
7845;SDS011;3968;51.424;6.788;2022-09-06T00:54:19;6.70;;;3.60;;
7845;SDS011;3968;51.424;6.788;2022-09-06T00:56:45;8.15;;;3.28;;
7845;SDS011;3968;51.424;6.788;2022-09-06T00:59:11;7.97;;;3.17;;
7845;SDS011;3968;51.424;6.788;2022-09-06T01:01:37;8.23;;;2.90;;
7845;SDS011;3968;51.424;6.788;2022-09-06T01:04:02;6.40;;;3.25;;
7845;SDS011;3968;51.424;6.788;2022-09-06T01:06:37;13.18;;;3.00;;
7845;SDS011;3968;51.424;6.788;2022-09-06T01:11:57;7.88;;;3.72;;
7845;SDS011;3968;51.424;6.788;2022-09-06T01:17:33;3.53;;;2.60;;
7845;SDS011;3968;51.424;6.788;2022-09-06T01:25:59;8.18;;;2.88;;
7845;SDS011;3968;51.424;6.788;2022-09-06T01:33:56;6.50;;;3.88;;
7845;SDS011;3968;51.424;6.788;2022-09-06T01:36:38;8.63;;;3.17;;
7845;SDS011;3968;51.424;6.788;2022-09-06T01:39:10;4.63;;;3.20;;
7845;SDS011;3968;51.424;6.788;2022-09-06T01:41:48;3.65;;;2.90;;
7845;SDS011;3968;51.424;6.788;2022-09-06T01:44:14;7.90;;;3.42;;
7845;SDS011;3968;51.424;6.788;2022-09-06T01:46:44;8.80;;;4.78;;
7845;SDS011;3968;51.424;6.788;2022-09-06T01:49:32;13.43;;;3.83;;
7845;SDS011;3968;51.424;6.788;2022-09-06T01:52:32;8.40;;;4.35;;
7845;SDS011;3968;51.424;6.788;2022-09-06T02:00:11;10.70;;;5.57;;
7845;SDS011;3968;51.424;6.788;2022-09-06T02:08:05;8.75;;;5.22;;
7845;SDS011;3968;51.424;6.788;2022-09-06T02:13:24;10.65;;;4.55;;
7845;SDS011;3968;51.424;6.788;2022-09-06T02:16:03;11.00;;;4.30;;
7845;SDS011;3968;51.424;6.788;2022-09-06T02:18:43;9.13;;;3.67;;
7845;SDS011;3968;51.424;6.788;2022-09-06T02:21:15;8.73;;;3.58;;
7845;SDS011;3968;51.424;6.788;2022-09-06T02:23:43;8.95;;;3.42;;
7845;SDS011;3968;51.424;6.788;2022-09-06T02:26:12;7.10;;;3.65;;
7845;SDS011;3968;51.424;6.788;2022-09-06T02:28:43;5.07;;;3.38;;
7845;SDS011;3968;51.424;6.788;2022-09-06T02:31:10;6.43;;;3.47;;
7845;SDS011;3968;51.424;6.788;2022-09-06T02:33:42;6.00;;;3.78;;
7845;SDS011;3968;51.424;6.788;2022-09-06T02:36:10;8.00;;;3.90;;
7845;SDS011;3968;51.424;6.788;2022-09-06T02:38:36;9.70;;;3.60;;
7845;SDS011;3968;51.424;6.788;2022-09-06T02:41:04;7.93;;;3.85;;
7845;SDS011;3968;51.424;6.788;2022-09-06T02:43:31;12.00;;;4.63;;
7845;SDS011;3968;51.424;6.788;2022-09-06T02:45:56;10.70;;;5.10;;
7845;SDS011;3968;51.424;6.788;2022-09-06T03:36:56;8.38;;;4.40;;
7845;SDS011;3968;51.424;6.788;2022-09-06T03:39:22;6.13;;;4.68;;
7845;SDS011;3968;51.424;6.788;2022-09-06T03:41:47;9.93;;;4.40;;
7845;SDS011;3968;51.424;6.788;2022-09-06T04:40:04;8.98;;;4.20;;
7845;SDS011;3968;51.424;6.788;2022-09-06T04:42:30;6.10;;;4.35;;
7845;SDS011;3968;51.424;6.788;2022-09-06T04:44:56;10.07;;;5.80;;
7845;SDS011;3968;51.424;6.788;2022-09-06T04:49:48;6.78;;;4.93;;
7845;SDS011;3968;51.424;6.788;2022-09-06T04:52:13;8.30;;;4.80;;
7845;SDS011;3968;51.424;6.788;2022-09-06T04:54:39;9.32;;;5.38;;
7845;SDS011;3968;51.424;6.788;2022-09-06T04:57:05;9.32;;;5.57;;
7845;SDS011;3968;51.424;6.788;2022-09-06T04:59:30;7.28;;;4.82;;
7845;SDS011;3968;51.424;6.788;2022-09-06T05:01:56;9.38;;;5.35;;
7845;SDS011;3968;51.424;6.788;2022-09-06T05:04:22;9.95;;;5.53;;
7845;SDS011;3968;51.424;6.788;2022-09-06T05:06:48;7.05;;;5.55;;
7845;SDS011;3968;51.424;6.788;2022-09-06T05:09:14;9.18;;;5.88;;
7845;SDS011;3968;51.424;6.788;2022-09-06T05:11:39;8.82;;;5.95;;
7845;SDS011;3968;51.424;6.788;2022-09-06T05:16:31;10.25;;;5.88;;
7845;SDS011;3968;51.424;6.788;2022-09-06T05:18:56;6.68;;;5.50;;
7845;SDS011;3968;51.424;6.788;2022-09-06T05:21:22;7.57;;;5.38;;
7845;SDS011;3968;51.424;6.788;2022-09-06T05:23:47;9.32;;;6.38;;
7845;SDS011;3968;51.424;6.788;2022-09-06T05:26:13;10.27;;;5.97;;
7845;SDS011;3968;51.424;6.788;2022-09-06T05:28:39;8.35;;;5.82;;
7845;SDS011;3968;51.424;6.788;2022-09-06T05:31:07;10.63;;;5.85;;
7845;SDS011;3968;51.424;6.788;2022-09-06T05:33:35;11.25;;;5.78;;
7845;SDS011;3968;51.424;6.788;2022-09-06T05:36:01;10.18;;;5.80;;
7845;SDS011;3968;51.424;6.788;2022-09-06T05:38:31;11.45;;;6.18;;
7845;SDS011;3968;51.424;6.788;2022-09-06T05:40:56;18.90;;;5.68;;
7845;SDS011;3968;51.424;6.788;2022-09-06T05:43:22;7.88;;;5.95;;
7845;SDS011;3968;51.424;6.788;2022-09-06T05:45:48;8.50;;;5.97;;
7845;SDS011;3968;51.424;6.788;2022-09-06T05:50:39;10.75;;;6.47;;
7845;SDS011;3968;51.424;6.788;2022-09-06T05:53:05;12.82;;;6.65;;
7845;SDS011;3968;51.424;6.788;2022-09-06T05:55:30;8.43;;;5.75;;
7845;SDS011;3968;51.424;6.788;2022-09-06T05:57:56;10.27;;;6.80;;
7845;SDS011;3968;51.424;6.788;2022-09-06T06:00:21;11.93;;;6.63;;
7845;SDS011;3968;51.424;6.788;2022-09-06T06:02:47;10.57;;;6.40;;
7845;SDS011;3968;51.424;6.788;2022-09-06T06:05:13;10.45;;;6.25;;
7845;SDS011;3968;51.424;6.788;2022-09-06T06:07:40;12.68;;;6.28;;
7845;SDS011;3968;51.424;6.788;2022-09-06T06:10:05;10.80;;;6.50;;
7845;SDS011;3968;51.424;6.788;2022-09-06T06:12:31;9.65;;;6.55;;
7845;SDS011;3968;51.424;6.788;2022-09-06T06:14:57;10.40;;;6.35;;
7845;SDS011;3968;51.424;6.788;2022-09-06T06:17:22;12.43;;;6.45;;
7845;SDS011;3968;51.424;6.788;2022-09-06T06:19:48;9.05;;;6.50;;
7845;SDS011;3968;51.424;6.788;2022-09-06T06:22:14;12.73;;;6.93;;
7845;SDS011;3968;51.424;6.788;2022-09-06T06:24:39;9.30;;;6.55;;
7845;SDS011;3968;51.424;6.788;2022-09-06T06:27:05;11.05;;;6.82;;
7845;SDS011;3968;51.424;6.788;2022-09-06T06:29:31;10.38;;;6.53;;
7845;SDS011;3968;51.424;6.788;2022-09-06T06:31:56;16.65;;;6.57;;
7845;SDS011;3968;51.424;6.788;2022-09-06T06:34:22;12.10;;;6.05;;
7845;SDS011;3968;51.424;6.788;2022-09-06T06:36:47;11.45;;;6.45;;
7845;SDS011;3968;51.424;6.788;2022-09-06T06:39:13;10.70;;;6.10;;
7845;SDS011;3968;51.424;6.788;2022-09-06T06:41:38;16.55;;;6.53;;
7845;SDS011;3968;51.424;6.788;2022-09-06T06:44:04;7.20;;;5.65;;
7845;SDS011;3968;51.424;6.788;2022-09-06T06:46:34;11.32;;;5.30;;
7845;SDS011;3968;51.424;6.788;2022-09-06T06:49:01;13.95;;;6.13;;
7845;SDS011;3968;51.424;6.788;2022-09-06T06:51:28;10.18;;;5.88;;
7845;SDS011;3968;51.424;6.788;2022-09-06T06:53:55;13.15;;;5.63;;
7845;SDS011;3968;51.424;6.788;2022-09-06T06:56:23;10.98;;;5.43;;
7845;SDS011;3968;51.424;6.788;2022-09-06T06:58:50;11.45;;;5.63;;
7845;SDS011;3968;51.424;6.788;2022-09-06T07:01:18;9.45;;;5.65;;
7845;SDS011;3968;51.424;6.788;2022-09-06T07:03:45;9.65;;;5.95;;
7845;SDS011;3968;51.424;6.788;2022-09-06T07:06:10;11.52;;;5.78;;
7845;SDS011;3968;51.424;6.788;2022-09-06T07:08:36;8.85;;;5.55;;
7845;SDS011;3968;51.424;6.788;2022-09-06T07:11:02;18.10;;;5.47;;
7845;SDS011;3968;51.424;6.788;2022-09-06T07:13:29;11.52;;;5.50;;
7845;SDS011;3968;51.424;6.788;2022-09-06T07:18:52;16.70;;;5.10;;
7845;SDS011;3968;51.424;6.788;2022-09-06T07:21:20;8.25;;;4.82;;
7845;SDS011;3968;51.424;6.788;2022-09-06T07:23:50;7.03;;;4.68;;
7845;SDS011;3968;51.424;6.788;2022-09-06T07:28:43;10.32;;;5.10;;
7845;SDS011;3968;51.424;6.788;2022-09-06T07:31:10;9.45;;;4.85;;
7845;SDS011;3968;51.424;6.788;2022-09-06T07:33:36;5.57;;;4.70;;
7845;SDS011;3968;51.424;6.788;2022-09-06T07:36:03;7.05;;;4.60;;
7845;SDS011;3968;51.424;6.788;2022-09-06T07:38:31;8.63;;;4.40;;
7845;SDS011;3968;51.424;6.788;2022-09-06T07:40:59;6.15;;;4.07;;
7845;SDS011;3968;51.424;6.788;2022-09-06T07:43:26;7.07;;;4.03;;
7845;SDS011;3968;51.424;6.788;2022-09-06T07:46:05;10.05;;;4.03;;
7845;SDS011;3968;51.424;6.788;2022-09-06T07:48:33;8.18;;;4.28;;
7845;SDS011;3968;51.424;6.788;2022-09-06T07:51:04;8.57;;;3.50;;
7845;SDS011;3968;51.424;6.788;2022-09-06T07:53:31;10.25;;;3.78;;
7845;SDS011;3968;51.424;6.788;2022-09-06T07:55:58;9.20;;;3.78;;
7845;SDS011;3968;51.424;6.788;2022-09-06T07:58:24;6.72;;;3.88;;
7845;SDS011;3968;51.424;6.788;2022-09-06T08:00:50;8.15;;;3.50;;
7845;SDS011;3968;51.424;6.788;2022-09-06T08:03:16;11.25;;;3.35;;
7845;SDS011;3968;51.424;6.788;2022-09-06T08:05:41;5.65;;;3.20;;
7845;SDS011;3968;51.424;6.788;2022-09-06T08:08:07;4.30;;;3.10;;
7845;SDS011;3968;51.424;6.788;2022-09-06T08:10:32;6.40;;;3.13;;
7845;SDS011;3968;51.424;6.788;2022-09-06T08:12:58;6.85;;;3.50;;
7845;SDS011;3968;51.424;6.788;2022-09-06T08:15:24;6.25;;;2.60;;
7845;SDS011;3968;51.424;6.788;2022-09-06T08:17:49;7.82;;;2.60;;
7845;SDS011;3968;51.424;6.788;2022-09-06T08:20:15;7.07;;;2.95;;
7845;SDS011;3968;51.424;6.788;2022-09-06T08:22:41;8.85;;;2.70;;
7845;SDS011;3968;51.424;6.788;2022-09-06T08:25:07;8.13;;;2.70;;
7845;SDS011;3968;51.424;6.788;2022-09-06T08:27:34;3.20;;;2.20;;
7845;SDS011;3968;51.424;6.788;2022-09-06T08:30:00;6.25;;;2.80;;
7845;SDS011;3968;51.424;6.788;2022-09-06T08:32:25;8.40;;;2.73;;
7845;SDS011;3968;51.424;6.788;2022-09-06T08:34:51;2.72;;;2.15;;
7845;SDS011;3968;51.424;6.788;2022-09-06T08:37:16;5.97;;;2.47;;
7845;SDS011;3968;51.424;6.788;2022-09-06T08:39:42;4.38;;;2.58;;
7845;SDS011;3968;51.424;6.788;2022-09-06T08:42:07;4.18;;;2.28;;
7845;SDS011;3968;51.424;6.788;2022-09-06T08:44:36;3.67;;;2.50;;
7845;SDS011;3968;51.424;6.788;2022-09-06T08:47:12;6.40;;;2.42;;
7845;SDS011;3968;51.424;6.788;2022-09-06T08:49:43;4.22;;;2.47;;
7845;SDS011;3968;51.424;6.788;2022-09-06T09:08:31;7.10;;;2.60;;
7845;SDS011;3968;51.424;6.788;2022-09-06T09:31:37;3.00;;;1.85;;
7845;SDS011;3968;51.424;6.788;2022-09-06T09:39:00;8.10;;;2.20;;
7845;SDS011;3968;51.424;6.788;2022-09-06T09:41:36;6.93;;;2.08;;
7845;SDS011;3968;51.424;6.788;2022-09-06T09:44:08;4.38;;;2.10;;
7845;SDS011;3968;51.424;6.788;2022-09-06T09:46:40;3.72;;;2.42;;
7845;SDS011;3968;51.424;6.788;2022-09-06T09:52:06;4.70;;;2.10;;
7845;SDS011;3968;51.424;6.788;2022-09-06T09:57:09;3.45;;;2.30;;
7845;SDS011;3968;51.424;6.788;2022-09-06T09:59:49;8.20;;;2.53;;
7845;SDS011;3968;51.424;6.788;2022-09-06T10:02:27;6.90;;;2.20;;
7845;SDS011;3968;51.424;6.788;2022-09-06T10:05:02;3.63;;;1.80;;
7845;SDS011;3968;51.424;6.788;2022-09-06T10:07:28;6.28;;;1.70;;
7845;SDS011;3968;51.424;6.788;2022-09-06T10:12:39;9.77;;;2.50;;
7845;SDS011;3968;51.424;6.788;2022-09-06T10:15:07;5.50;;;2.33;;
7845;SDS011;3968;51.424;6.788;2022-09-06T10:17:36;6.03;;;2.10;;
7845;SDS011;3968;51.424;6.788;2022-09-06T10:20:11;5.03;;;2.78;;
7845;SDS011;3968;51.424;6.788;2022-09-06T10:25:35;18.10;;;3.22;;
7845;SDS011;3968;51.424;6.788;2022-09-06T10:28:27;4.03;;;2.42;;
7845;SDS011;3968;51.424;6.788;2022-09-06T10:36:55;10.15;;;6.90;;
7845;SDS011;3968;51.424;6.788;2022-09-06T10:45:31;4.53;;;2.50;;
7845;SDS011;3968;51.424;6.788;2022-09-06T10:50:54;7.30;;;2.65;;
7845;SDS011;3968;51.424;6.788;2022-09-06T10:53:49;7.68;;;2.60;;
7845;SDS011;3968;51.424;6.788;2022-09-06T11:04:34;8.40;;;3.25;;
7845;SDS011;3968;51.424;6.788;2022-09-06T11:13:21;9.27;;;2.70;;
7845;SDS011;3968;51.424;6.788;2022-09-06T11:18:57;9.60;;;2.60;;
7845;SDS011;3968;51.424;6.788;2022-09-06T11:22:11;7.95;;;2.17;;
7845;SDS011;3968;51.424;6.788;2022-09-06T11:24:35;13.73;;;2.50;;
7845;SDS011;3968;51.424;6.788;2022-09-06T11:29:52;6.68;;;2.45;;
7845;SDS011;3968;51.424;6.788;2022-09-06T11:35:00;3.22;;;2.20;;
7845;SDS011;3968;51.424;6.788;2022-09-06T11:37:31;4.43;;;1.77;;
7845;SDS011;3968;51.424;6.788;2022-09-06T11:47:49;4.57;;;2.13;;
7845;SDS011;3968;51.424;6.788;2022-09-06T11:53:27;6.00;;;1.90;;
7845;SDS011;3968;51.424;6.788;2022-09-06T11:55:43;5.80;;;2.58;;
7845;SDS011;3968;51.424;6.788;2022-09-06T12:00:42;3.10;;;1.77;;
7845;SDS011;3968;51.424;6.788;2022-09-06T12:03:09;13.60;;;2.50;;
7845;SDS011;3968;51.424;6.788;2022-09-06T12:08:39;10.95;;;2.15;;
7845;SDS011;3968;51.424;6.788;2022-09-06T12:11:48;5.75;;;2.10;;
7845;SDS011;3968;51.424;6.788;2022-09-06T12:13:59;4.65;;;2.00;;
7845;SDS011;3968;51.424;6.788;2022-09-06T12:19:48;6.25;;;1.95;;
7845;SDS011;3968;51.424;6.788;2022-09-06T12:32:58;10.05;;;2.80;;
7845;SDS011;3968;51.424;6.788;2022-09-06T12:35:27;5.22;;;3.20;;
7845;SDS011;3968;51.424;6.788;2022-09-06T12:37:59;5.30;;;2.40;;
7845;SDS011;3968;51.424;6.788;2022-09-06T12:40:29;6.20;;;2.90;;
7845;SDS011;3968;51.424;6.788;2022-09-06T12:42:57;13.20;;;3.13;;
7845;SDS011;3968;51.424;6.788;2022-09-06T12:45:23;10.82;;;2.40;;
7845;SDS011;3968;51.424;6.788;2022-09-06T12:47:50;7.18;;;2.45;;
7845;SDS011;3968;51.424;6.788;2022-09-06T12:50:28;3.17;;;2.38;;
7845;SDS011;3968;51.424;6.788;2022-09-06T12:52:56;9.77;;;2.70;;
7845;SDS011;3968;51.424;6.788;2022-09-06T12:55:34;5.07;;;2.28;;
7845;SDS011;3968;51.424;6.788;2022-09-06T12:58:05;5.93;;;2.40;;
7845;SDS011;3968;51.424;6.788;2022-09-06T13:00:36;3.65;;;2.33;;
7845;SDS011;3968;51.424;6.788;2022-09-06T13:05:38;6.70;;;2.47;;
7845;SDS011;3968;51.424;6.788;2022-09-06T13:08:06;9.20;;;2.38;;
7845;SDS011;3968;51.424;6.788;2022-09-06T13:10:38;6.45;;;2.10;;
7845;SDS011;3968;51.424;6.788;2022-09-06T13:13:07;8.57;;;1.90;;
7845;SDS011;3968;51.424;6.788;2022-09-06T13:15:33;9.32;;;2.55;;
7845;SDS011;3968;51.424;6.788;2022-09-06T13:20:44;5.32;;;2.15;;
7845;SDS011;3968;51.424;6.788;2022-09-06T13:23:21;5.45;;;2.30;;
7845;SDS011;3968;51.424;6.788;2022-09-06T13:25:47;6.10;;;2.58;;
7845;SDS011;3968;51.424;6.788;2022-09-06T13:33:38;4.60;;;1.90;;
7845;SDS011;3968;51.424;6.788;2022-09-06T13:41:05;9.05;;;2.05;;
7845;SDS011;3968;51.424;6.788;2022-09-06T13:46:38;12.00;;;2.22;;
7845;SDS011;3968;51.424;6.788;2022-09-06T13:49:04;5.78;;;2.15;;
7845;SDS011;3968;51.424;6.788;2022-09-06T13:51:30;6.05;;;3.75;;
7845;SDS011;3968;51.424;6.788;2022-09-06T13:54:03;7.65;;;2.30;;
7845;SDS011;3968;51.424;6.788;2022-09-06T13:56:30;6.47;;;1.90;;
7845;SDS011;3968;51.424;6.788;2022-09-06T13:58:56;5.35;;;2.00;;
7845;SDS011;3968;51.424;6.788;2022-09-06T14:01:22;6.13;;;1.77;;
7845;SDS011;3968;51.424;6.788;2022-09-06T14:03:47;3.75;;;1.70;;
7845;SDS011;3968;51.424;6.788;2022-09-06T14:06:14;7.38;;;2.40;;
7845;SDS011;3968;51.424;6.788;2022-09-06T14:08:43;4.35;;;3.38;;
7845;SDS011;3968;51.424;6.788;2022-09-06T14:11:08;6.88;;;2.58;;
7845;SDS011;3968;51.424;6.788;2022-09-06T14:13:34;4.07;;;2.33;;
7845;SDS011;3968;51.424;6.788;2022-09-06T14:16:00;4.70;;;2.95;;
7845;SDS011;3968;51.424;6.788;2022-09-06T14:18:25;4.93;;;1.77;;
7845;SDS011;3968;51.424;6.788;2022-09-06T14:20:52;6.25;;;1.80;;
7845;SDS011;3968;51.424;6.788;2022-09-06T14:23:19;5.13;;;3.35;;
7845;SDS011;3968;51.424;6.788;2022-09-06T14:25:45;5.13;;;2.05;;
7845;SDS011;3968;51.424;6.788;2022-09-06T14:28:11;5.40;;;2.53;;
7845;SDS011;3968;51.424;6.788;2022-09-06T14:30:36;3.83;;;1.90;;
7845;SDS011;3968;51.424;6.788;2022-09-06T14:33:03;9.55;;;5.20;;
7845;SDS011;3968;51.424;6.788;2022-09-06T14:35:31;7.80;;;3.70;;
7845;SDS011;3968;51.424;6.788;2022-09-06T14:37:58;4.28;;;2.90;;
7845;SDS011;3968;51.424;6.788;2022-09-06T14:40:24;11.38;;;3.42;;
7845;SDS011;3968;51.424;6.788;2022-09-06T14:42:50;5.13;;;2.78;;
7845;SDS011;3968;51.424;6.788;2022-09-06T14:45:17;4.85;;;2.40;;
7845;SDS011;3968;51.424;6.788;2022-09-06T14:47:43;6.00;;;2.15;;
7845;SDS011;3968;51.424;6.788;2022-09-06T14:50:09;5.57;;;1.70;;
7845;SDS011;3968;51.424;6.788;2022-09-06T14:52:35;6.95;;;3.80;;
7845;SDS011;3968;51.424;6.788;2022-09-06T14:55:01;5.20;;;2.90;;
7845;SDS011;3968;51.424;6.788;2022-09-06T14:57:27;5.15;;;1.40;;
7845;SDS011;3968;51.424;6.788;2022-09-06T14:59:54;8.48;;;5.40;;
7845;SDS011;3968;51.424;6.788;2022-09-06T15:02:19;6.97;;;3.90;;
7845;SDS011;3968;51.424;6.788;2022-09-06T15:04:45;6.25;;;2.13;;
7845;SDS011;3968;51.424;6.788;2022-09-06T15:07:11;3.85;;;1.48;;
7845;SDS011;3968;51.424;6.788;2022-09-06T15:09:39;3.80;;;2.70;;
7845;SDS011;3968;51.424;6.788;2022-09-06T15:12:05;4.72;;;2.15;;
7845;SDS011;3968;51.424;6.788;2022-09-06T15:14:30;8.20;;;3.97;;
7845;SDS011;3968;51.424;6.788;2022-09-06T15:16:58;6.65;;;3.35;;
7845;SDS011;3968;51.424;6.788;2022-09-06T15:19:25;2.80;;;1.48;;
7845;SDS011;3968;51.424;6.788;2022-09-06T15:21:52;3.17;;;2.22;;
7845;SDS011;3968;51.424;6.788;2022-09-06T15:24:19;11.43;;;8.40;;
7845;SDS011;3968;51.424;6.788;2022-09-06T15:26:45;12.93;;;3.83;;
7845;SDS011;3968;51.424;6.788;2022-09-06T15:29:11;16.35;;;8.00;;
7845;SDS011;3968;51.424;6.788;2022-09-06T15:31:39;8.73;;;4.72;;
7845;SDS011;3968;51.424;6.788;2022-09-06T15:34:06;8.95;;;5.97;;
7845;SDS011;3968;51.424;6.788;2022-09-06T15:36:33;4.80;;;2.78;;
7845;SDS011;3968;51.424;6.788;2022-09-06T15:39:02;8.35;;;5.25;;
7845;SDS011;3968;51.424;6.788;2022-09-06T15:41:29;3.05;;;2.10;;
7845;SDS011;3968;51.424;6.788;2022-09-06T15:43:57;7.45;;;3.03;;
7845;SDS011;3968;51.424;6.788;2022-09-06T15:49:14;6.57;;;1.58;;
7845;SDS011;3968;51.424;6.788;2022-09-06T15:51:45;5.95;;;2.40;;
7845;SDS011;3968;51.424;6.788;2022-09-06T15:54:12;12.80;;;3.50;;
7845;SDS011;3968;51.424;6.788;2022-09-06T15:56:39;10.43;;;4.07;;
7845;SDS011;3968;51.424;6.788;2022-09-06T15:59:05;7.65;;;4.47;;
7845;SDS011;3968;51.424;6.788;2022-09-06T16:01:31;3.95;;;1.92;;
7845;SDS011;3968;51.424;6.788;2022-09-06T16:04:00;8.77;;;4.95;;
7845;SDS011;3968;51.424;6.788;2022-09-06T16:06:28;8.15;;;3.58;;
7845;SDS011;3968;51.424;6.788;2022-09-06T16:09:00;4.47;;;2.33;;
7845;SDS011;3968;51.424;6.788;2022-09-06T16:11:36;3.92;;;2.65;;
7845;SDS011;3968;51.424;6.788;2022-09-06T16:14:02;10.40;;;4.15;;
7845;SDS011;3968;51.424;6.788;2022-09-06T16:16:29;6.63;;;3.50;;
7845;SDS011;3968;51.424;6.788;2022-09-06T16:18:55;7.03;;;2.90;;
7845;SDS011;3968;51.424;6.788;2022-09-06T16:21:23;6.05;;;2.25;;
7845;SDS011;3968;51.424;6.788;2022-09-06T16:23:53;8.27;;;4.57;;
7845;SDS011;3968;51.424;6.788;2022-09-06T16:26:21;7.93;;;3.30;;
7845;SDS011;3968;51.424;6.788;2022-09-06T16:28:48;16.90;;;5.15;;
7845;SDS011;3968;51.424;6.788;2022-09-06T16:31:15;6.40;;;4.13;;
7845;SDS011;3968;51.424;6.788;2022-09-06T16:33:41;7.65;;;3.63;;
7845;SDS011;3968;51.424;6.788;2022-09-06T16:36:09;10.05;;;4.55;;
7845;SDS011;3968;51.424;6.788;2022-09-06T16:38:35;8.70;;;3.47;;
7845;SDS011;3968;51.424;6.788;2022-09-06T16:41:09;8.15;;;2.15;;
7845;SDS011;3968;51.424;6.788;2022-09-06T16:43:36;4.82;;;3.22;;
7845;SDS011;3968;51.424;6.788;2022-09-06T16:46:02;7.63;;;3.35;;
7845;SDS011;3968;51.424;6.788;2022-09-06T16:48:28;5.03;;;2.80;;
7845;SDS011;3968;51.424;6.788;2022-09-06T16:50:55;6.43;;;4.20;;
7845;SDS011;3968;51.424;6.788;2022-09-06T16:53:21;6.13;;;2.50;;
7845;SDS011;3968;51.424;6.788;2022-09-06T16:55:48;8.48;;;3.50;;
7845;SDS011;3968;51.424;6.788;2022-09-06T16:58:14;6.57;;;3.17;;
7845;SDS011;3968;51.424;6.788;2022-09-06T17:00:42;6.03;;;2.78;;
7845;SDS011;3968;51.424;6.788;2022-09-06T17:03:09;8.07;;;4.00;;
7845;SDS011;3968;51.424;6.788;2022-09-06T17:05:38;5.40;;;3.28;;
7845;SDS011;3968;51.424;6.788;2022-09-06T17:08:04;6.53;;;3.42;;
7845;SDS011;3968;51.424;6.788;2022-09-06T17:10:30;3.22;;;2.83;;
7845;SDS011;3968;51.424;6.788;2022-09-06T17:12:55;10.10;;;3.78;;
7845;SDS011;3968;51.424;6.788;2022-09-06T17:15:22;10.88;;;4.40;;
7845;SDS011;3968;51.424;6.788;2022-09-06T17:17:48;5.90;;;3.70;;
7845;SDS011;3968;51.424;6.788;2022-09-06T17:20:14;5.72;;;3.88;;
7845;SDS011;3968;51.424;6.788;2022-09-06T17:22:42;6.68;;;3.10;;
7845;SDS011;3968;51.424;6.788;2022-09-06T17:25:08;10.23;;;3.38;;
7845;SDS011;3968;51.424;6.788;2022-09-06T17:27:35;10.50;;;3.35;;
7845;SDS011;3968;51.424;6.788;2022-09-06T17:30:01;6.15;;;2.75;;
7845;SDS011;3968;51.424;6.788;2022-09-06T17:32:28;8.48;;;2.67;;
7845;SDS011;3968;51.424;6.788;2022-09-06T17:34:54;10.40;;;2.53;;
7845;SDS011;3968;51.424;6.788;2022-09-06T17:37:20;9.02;;;3.17;;
7845;SDS011;3968;51.424;6.788;2022-09-06T17:39:47;4.55;;;2.00;;
7845;SDS011;3968;51.424;6.788;2022-09-06T17:42:13;12.50;;;2.60;;
7845;SDS011;3968;51.424;6.788;2022-09-06T17:44:38;8.60;;;2.10;;
7845;SDS011;3968;51.424;6.788;2022-09-06T17:47:04;8.13;;;2.55;;
7845;SDS011;3968;51.424;6.788;2022-09-06T17:49:31;11.75;;;3.05;;
7845;SDS011;3968;51.424;6.788;2022-09-06T17:51:57;8.73;;;2.80;;
7845;SDS011;3968;51.424;6.788;2022-09-06T17:54:22;10.23;;;3.35;;
7845;SDS011;3968;51.424;6.788;2022-09-06T17:56:48;15.63;;;4.50;;
7845;SDS011;3968;51.424;6.788;2022-09-06T17:59:14;8.05;;;2.88;;
7845;SDS011;3968;51.424;6.788;2022-09-06T18:01:40;7.10;;;3.17;;
7845;SDS011;3968;51.424;6.788;2022-09-06T18:04:08;10.32;;;3.95;;
7845;SDS011;3968;51.424;6.788;2022-09-06T18:06:35;6.35;;;2.90;;
7845;SDS011;3968;51.424;6.788;2022-09-06T18:09:05;10.48;;;3.17;;
7845;SDS011;3968;51.424;6.788;2022-09-06T18:11:36;10.68;;;3.15;;
7845;SDS011;3968;51.424;6.788;2022-09-06T18:14:07;5.40;;;2.78;;
7845;SDS011;3968;51.424;6.788;2022-09-06T18:16:36;10.48;;;2.85;;
7845;SDS011;3968;51.424;6.788;2022-09-06T18:19:04;11.82;;;3.47;;
7845;SDS011;3968;51.424;6.788;2022-09-06T18:21:32;9.68;;;2.95;;
7845;SDS011;3968;51.424;6.788;2022-09-06T18:24:00;7.18;;;2.50;;
7845;SDS011;3968;51.424;6.788;2022-09-06T18:26:25;4.22;;;2.60;;
7845;SDS011;3968;51.424;6.788;2022-09-06T18:28:51;3.72;;;2.55;;
7845;SDS011;3968;51.424;6.788;2022-09-06T18:31:18;3.80;;;2.40;;
7845;SDS011;3968;51.424;6.788;2022-09-06T18:33:45;8.05;;;2.95;;
7845;SDS011;3968;51.424;6.788;2022-09-06T18:36:11;8.93;;;2.63;;
7845;SDS011;3968;51.424;6.788;2022-09-06T18:38:39;8.98;;;2.72;;
7845;SDS011;3968;51.424;6.788;2022-09-06T18:41:09;8.93;;;2.80;;
7845;SDS011;3968;51.424;6.788;2022-09-06T18:43:58;11.48;;;2.60;;
7845;SDS011;3968;51.424;6.788;2022-09-06T18:46:32;7.68;;;2.88;;
7845;SDS011;3968;51.424;6.788;2022-09-06T18:49:00;6.18;;;3.35;;
7845;SDS011;3968;51.424;6.788;2022-09-06T18:51:25;8.27;;;3.25;;
7845;SDS011;3968;51.424;6.788;2022-09-06T18:53:53;8.15;;;3.40;;
7845;SDS011;3968;51.424;6.788;2022-09-06T18:56:20;12.68;;;3.47;;
7845;SDS011;3968;51.424;6.788;2022-09-06T18:58:46;6.50;;;4.50;;
7845;SDS011;3968;51.424;6.788;2022-09-06T19:01:13;8.15;;;3.55;;
7845;SDS011;3968;51.424;6.788;2022-09-06T19:03:41;7.18;;;4.10;;
7845;SDS011;3968;51.424;6.788;2022-09-06T19:06:08;9.55;;;4.20;;
7845;SDS011;3968;51.424;6.788;2022-09-06T19:08:36;5.60;;;3.75;;
7845;SDS011;3968;51.424;6.788;2022-09-06T19:11:06;11.27;;;4.53;;
7845;SDS011;3968;51.424;6.788;2022-09-06T19:13:34;10.15;;;3.92;;
7845;SDS011;3968;51.424;6.788;2022-09-06T19:16:02;5.43;;;3.10;;
7845;SDS011;3968;51.424;6.788;2022-09-06T19:18:29;9.88;;;2.80;;
7845;SDS011;3968;51.424;6.788;2022-09-06T19:21:00;5.45;;;3.20;;
7845;SDS011;3968;51.424;6.788;2022-09-06T19:23:29;9.15;;;3.67;;
7845;SDS011;3968;51.424;6.788;2022-09-06T19:26:03;10.00;;;3.97;;
7845;SDS011;3968;51.424;6.788;2022-09-06T19:28:30;6.88;;;3.75;;
7845;SDS011;3968;51.424;6.788;2022-09-06T19:30:56;5.75;;;3.72;;
7845;SDS011;3968;51.424;6.788;2022-09-06T19:33:23;9.05;;;3.70;;
7845;SDS011;3968;51.424;6.788;2022-09-06T19:35:49;8.05;;;4.97;;
7845;SDS011;3968;51.424;6.788;2022-09-06T19:38:19;9.48;;;4.90;;
7845;SDS011;3968;51.424;6.788;2022-09-06T19:40:45;8.25;;;3.53;;
7845;SDS011;3968;51.424;6.788;2022-09-06T19:43:11;8.20;;;3.53;;
7845;SDS011;3968;51.424;6.788;2022-09-06T19:45:37;11.18;;;3.75;;
7845;SDS011;3968;51.424;6.788;2022-09-06T19:48:06;5.93;;;3.67;;
7845;SDS011;3968;51.424;6.788;2022-09-06T19:50:33;7.38;;;3.63;;
7845;SDS011;3968;51.424;6.788;2022-09-06T19:53:00;6.53;;;4.20;;
7845;SDS011;3968;51.424;6.788;2022-09-06T19:55:30;8.32;;;4.15;;
7845;SDS011;3968;51.424;6.788;2022-09-06T19:57:57;8.77;;;4.10;;
7845;SDS011;3968;51.424;6.788;2022-09-06T20:00:23;6.97;;;3.55;;
7845;SDS011;3968;51.424;6.788;2022-09-06T20:02:49;6.35;;;3.40;;
7845;SDS011;3968;51.424;6.788;2022-09-06T20:05:14;7.03;;;3.33;;
7845;SDS011;3968;51.424;6.788;2022-09-06T20:07:41;12.57;;;4.03;;